createdAt,value
2022-10-17T00:01:08.489Z,82.01
2022-10-17T00:03:38.003Z,82.13
2022-10-17T00:06:08.644Z,82.23
2022-10-17T00:08:38.241Z,82.17
2022-10-17T00:11:09.434Z,81.97
2022-10-17T00:13:37.349Z,82.21
2022-10-17T00:16:06.149Z,82.40
2022-10-17T00:18:34.037Z,82.26
2022-10-17T00:21:01.926Z,82.31
2022-10-17T00:23:30.575Z,81.81
2022-10-17T00:26:00.613Z,82.22
2022-10-17T00:28:28.797Z,82.39
2022-10-17T00:30:58.733Z,82.45
2022-10-17T00:33:27.741Z,82.62
2022-10-17T00:36:17.896Z,82.41
2022-10-17T00:38:47.825Z,82.62
2022-10-17T00:41:19.075Z,82.70
2022-10-17T00:44:01.588Z,82.47
2022-10-17T00:46:35.009Z,82.88
2022-10-17T00:49:07.623Z,83.03
2022-10-17T00:51:45.365Z,83.25
2022-10-17T00:54:16.260Z,83.17
2022-10-17T00:56:46.976Z,83.15
2022-10-17T00:59:17.158Z,83.30
2022-10-17T01:01:52.697Z,83.66
2022-10-17T01:04:20.975Z,84.02
2022-10-17T01:06:48.711Z,83.90
2022-10-17T01:09:16.617Z,83.78
2022-10-17T01:11:49.870Z,83.60
2022-10-17T01:14:45.807Z,83.49
2022-10-17T01:17:46.621Z,83.39
2022-10-17T01:20:45.462Z,83.39
2022-10-17T01:23:36.596Z,83.65
2022-10-17T01:26:13.332Z,83.63
2022-10-17T01:29:02.580Z,83.60
2022-10-17T01:31:47.778Z,83.52
2022-10-17T01:34:21.294Z,83.76
2022-10-17T01:36:59.084Z,83.87
2022-10-17T01:39:50.409Z,84.21
2022-10-17T01:42:18.351Z,84.49
2022-10-17T01:45:12.636Z,84.54
2022-10-17T01:47:42.782Z,84.65
2022-10-17T01:50:17.722Z,84.58
2022-10-17T01:52:55.617Z,84.55
2022-10-17T01:55:30.827Z,84.75
2022-10-17T01:58:13.824Z,85.09
2022-10-17T02:00:44.063Z,85.03
2022-10-17T02:03:17.820Z,84.89
2022-10-17T02:05:46.680Z,84.79
2022-10-17T02:08:24.451Z,84.52
2022-10-17T02:10:58.386Z,84.41
2022-10-17T02:13:40.307Z,84.56
2022-10-17T02:16:26.443Z,84.68
2022-10-17T02:19:02.075Z,84.18
2022-10-17T02:21:32.808Z,84.21
2022-10-17T02:24:26.639Z,84.38
2022-10-17T02:27:10.655Z,84.44
2022-10-17T02:29:52.185Z,84.93
2022-10-17T02:32:27.526Z,84.90
2022-10-17T02:34:58.735Z,84.68
2022-10-17T02:37:30.355Z,84.66
2022-10-17T02:40:00.968Z,85.06
2022-10-17T02:42:31.175Z,85.13
2022-10-17T02:45:01.996Z,85.11
2022-10-17T02:47:34.615Z,85.08
2022-10-17T02:50:02.541Z,84.96
2022-10-17T02:52:30.758Z,84.95
2022-10-17T02:55:05.137Z,85.06
2022-10-17T02:57:45.174Z,84.70
2022-10-17T03:00:15.690Z,84.40
2022-10-17T03:02:46.368Z,84.86
2022-10-17T03:05:21.143Z,84.60
2022-10-17T03:07:49.234Z,84.50
2022-10-17T03:10:17.644Z,84.85
2022-10-17T03:12:45.726Z,84.66
2022-10-17T03:15:13.890Z,84.86
2022-10-17T03:17:41.820Z,85.19
2022-10-17T03:20:10.118Z,85.12
2022-10-17T03:22:38.209Z,85.31
2022-10-17T03:25:06.179Z,85.70
2022-10-17T03:27:33.949Z,85.58
2022-10-17T03:30:01.875Z,85.15
2022-10-17T03:32:29.745Z,84.99
2022-10-17T03:34:57.563Z,84.89
2022-10-17T03:37:25.859Z,84.97
2022-10-17T03:39:53.789Z,85.03
2022-10-17T03:42:21.574Z,85.04
2022-10-17T03:44:49.416Z,85.24
2022-10-17T03:47:17.288Z,85.51
2022-10-17T03:49:45.108Z,85.67
2022-10-17T03:52:13.516Z,85.59
2022-10-17T03:54:41.392Z,85.24
2022-10-17T03:57:09.178Z,85.01
2022-10-17T03:59:37.122Z,85.14
2022-10-17T04:02:04.893Z,85.40
2022-10-17T04:04:32.756Z,85.48
2022-10-17T04:07:00.725Z,85.69
2022-10-17T04:09:28.691Z,85.93
2022-10-17T04:11:56.486Z,86.02
2022-10-17T04:14:24.260Z,86.04
2022-10-17T04:16:53.565Z,86.13
2022-10-17T04:19:21.404Z,86.02
2022-10-17T04:21:49.164Z,85.70
2022-10-17T04:24:17.133Z,85.35
2022-10-17T04:26:44.996Z,85.37
2022-10-17T04:29:12.823Z,85.28
2022-10-17T04:31:40.782Z,85.57
2022-10-17T04:34:08.696Z,85.86
2022-10-17T04:36:36.475Z,85.83
2022-10-17T04:39:05.926Z,85.98
2022-10-17T04:41:33.898Z,85.83
2022-10-17T04:44:01.615Z,85.91
2022-10-17T04:46:29.520Z,86.06
2022-10-17T04:48:57.395Z,86.20
2022-10-17T04:51:26.604Z,86.23
2022-10-17T04:53:55.067Z,86.40
2022-10-17T04:56:24.686Z,86.49
2022-10-17T04:58:52.808Z,86.37
2022-10-17T05:01:22.554Z,86.17
2022-10-17T05:03:50.558Z,86.05
2022-10-17T05:06:23.973Z,86.03
2022-10-17T05:08:51.952Z,85.98
2022-10-17T05:11:25.612Z,85.96
2022-10-17T05:14:02.160Z,85.72
2022-10-17T05:16:30.941Z,85.86
2022-10-17T05:18:59.083Z,86.21
2022-10-17T05:21:28.972Z,86.59
2022-10-17T05:23:57.302Z,86.83
2022-10-17T05:26:25.883Z,86.84
2022-10-17T05:28:55.024Z,86.62
2022-10-17T05:31:23.168Z,86.58
2022-10-17T05:33:51.072Z,86.87
2022-10-17T05:36:19.093Z,86.78
2022-10-17T05:38:51.452Z,86.85
2022-10-17T05:41:20.511Z,86.88
2022-10-17T05:43:50.425Z,86.84
2022-10-17T05:46:18.195Z,86.85
2022-10-17T05:48:45.983Z,86.78
2022-10-17T05:51:13.739Z,86.83
2022-10-17T05:53:42.243Z,86.88
2022-10-17T05:56:12.452Z,86.95
2022-10-17T05:58:50.408Z,87.13
2022-10-17T06:01:19.763Z,87.08
2022-10-17T06:03:47.729Z,87.19
2022-10-17T06:06:16.766Z,87.31
2022-10-17T06:08:45.108Z,87.05
2022-10-17T06:11:13.276Z,87.09
2022-10-17T06:13:41.761Z,87.21
2022-10-17T06:16:09.601Z,87.14
2022-10-17T06:18:37.391Z,87.13
2022-10-17T06:21:07.820Z,87.13
2022-10-17T06:23:35.755Z,87.22
2022-10-17T06:26:05.715Z,87.40
2022-10-17T06:28:34.753Z,87.35
2022-10-17T06:31:11.719Z,87.28
2022-10-17T06:33:40.053Z,86.87
2022-10-17T06:36:12.378Z,87.08
2022-10-17T06:38:40.801Z,86.96
2022-10-17T06:41:13.747Z,86.59
2022-10-17T06:43:45.684Z,86.21
2022-10-17T06:46:15.918Z,85.60
2022-10-17T06:48:44.962Z,84.68
2022-10-17T06:51:13.235Z,84.36
2022-10-17T06:53:41.092Z,84.64
2022-10-17T06:56:10.445Z,84.51
2022-10-17T06:58:40.428Z,83.71
2022-10-17T07:01:11.586Z,84.08
2022-10-17T07:03:41.024Z,84.22
2022-10-17T07:06:10.822Z,84.27
2022-10-17T07:08:43.640Z,83.87
2022-10-17T07:11:17.216Z,83.28
2022-10-17T07:13:45.243Z,83.20
2022-10-17T07:16:14.080Z,83.34
2022-10-17T07:18:42.571Z,83.24
2022-10-17T07:21:10.633Z,82.85
2022-10-17T07:23:38.709Z,82.21
2022-10-17T07:26:10.990Z,82.16
2022-10-17T07:28:41.007Z,82.02
2022-10-17T07:31:16.244Z,81.74
2022-10-17T07:36:18.756Z,81.33
2022-10-17T07:38:46.607Z,81.29
2022-10-17T07:41:17.924Z,81.31
2022-10-17T07:43:49.261Z,81.31
2022-10-17T07:46:17.721Z,81.17
2022-10-17T07:48:45.505Z,80.99
2022-10-17T07:51:13.292Z,80.06
2022-10-17T07:53:46.356Z,79.76
2022-10-17T07:56:17.012Z,79.77
2022-10-17T07:58:45.004Z,79.57
2022-10-17T08:01:15.609Z,79.46
2022-10-17T08:03:45.440Z,79.30
2022-10-17T08:06:14.776Z,79.16
2022-10-17T08:08:43.072Z,78.29
2022-10-17T08:11:12.677Z,77.83
2022-10-17T08:13:41.529Z,77.92
2022-10-17T08:16:12.322Z,77.93
2022-10-17T08:18:41.968Z,77.86
2022-10-17T08:21:11.067Z,77.58
2022-10-17T08:23:38.997Z,77.38
2022-10-17T08:26:10.479Z,76.56
2022-10-17T08:28:39.800Z,76.80
2022-10-17T08:31:10.353Z,76.91
2022-10-17T08:33:38.344Z,77.17
2022-10-17T08:36:07.303Z,77.18
2022-10-17T08:38:36.913Z,77.20
2022-10-17T08:41:14.428Z,77.07
2022-10-17T08:43:42.111Z,76.75
2022-10-17T08:46:10.285Z,76.06
2022-10-17T08:48:45.604Z,75.86
2022-10-17T08:51:35.954Z,75.57
2022-10-17T08:54:15.071Z,74.52
2022-10-17T08:56:49.615Z,74.56
2022-10-17T08:59:21.597Z,74.64
2022-10-17T09:02:31.776Z,74.81
2022-10-17T09:05:26.537Z,74.25
2022-10-17T09:08:28.915Z,73.73
2022-10-17T09:11:18.206Z,73.83
2022-10-17T09:14:10.553Z,73.87
2022-10-17T09:16:57.194Z,73.00
2022-10-17T09:19:36.858Z,72.53
2022-10-17T09:22:12.864Z,72.59
2022-10-17T09:24:45.420Z,73.26
2022-10-17T09:27:27.560Z,73.19
2022-10-17T09:30:26.826Z,73.33
2022-10-17T09:33:10.850Z,73.42
2022-10-17T09:35:44.334Z,74.18
2022-10-17T09:38:18.157Z,74.30
2022-10-17T09:40:57.114Z,74.19
2022-10-17T09:43:25.584Z,73.91
2022-10-17T09:46:11.245Z,73.64
2022-10-17T09:48:46.929Z,73.71
2022-10-17T09:51:25.658Z,73.50
2022-10-17T09:53:59.813Z,73.14
2022-10-17T09:56:27.633Z,73.08
2022-10-17T09:58:59.069Z,73.06
2022-10-17T10:01:29.876Z,72.66
2022-10-17T10:04:16.108Z,72.18
2022-10-17T10:07:05.819Z,71.92
2022-10-17T10:09:39.371Z,71.96
2022-10-17T10:12:26.925Z,71.80
2022-10-17T10:14:55.837Z,71.63
2022-10-17T10:17:42.531Z,71.87
2022-10-17T10:20:33.109Z,71.46
2022-10-17T10:23:13.892Z,71.57
2022-10-17T10:26:03.329Z,71.31
2022-10-17T10:28:34.107Z,71.11
2022-10-17T10:31:08.149Z,71.29
2022-10-17T10:33:41.955Z,71.32
2022-10-17T10:36:09.944Z,71.29
2022-10-17T10:38:41.007Z,70.89
2022-10-17T10:41:11.618Z,70.52
2022-10-17T10:43:46.570Z,69.72
2022-10-17T10:46:28.812Z,69.70
2022-10-17T10:49:00.322Z,70.39
2022-10-17T10:51:38.025Z,70.34
2022-10-17T10:54:10.279Z,70.11
2022-10-17T10:56:43.899Z,69.69
2022-10-17T10:59:21.161Z,69.10
2022-10-17T11:01:56.851Z,69.30
2022-10-17T11:04:51.192Z,69.01
2022-10-17T11:07:23.900Z,68.31
2022-10-17T11:10:08.107Z,67.97
2022-10-17T11:12:48.653Z,67.45
2022-10-17T11:15:25.413Z,67.04
2022-10-17T11:18:02.932Z,67.13
2022-10-17T11:20:38.521Z,66.65
2022-10-17T11:23:28.056Z,65.79
2022-10-17T11:26:01.592Z,65.78
2022-10-17T11:28:29.726Z,65.55
2022-10-17T11:31:07.980Z,65.26
2022-10-17T11:33:54.804Z,65.02
2022-10-17T11:36:28.510Z,64.84
2022-10-17T11:39:08.969Z,64.43
2022-10-17T11:41:48.892Z,64.35
2022-10-17T11:44:36.353Z,64.31
2022-10-17T11:47:52.055Z,64.07
2022-10-17T11:53:28.679Z,63.01
2022-10-17T11:55:58.904Z,62.68
2022-10-17T11:59:15.592Z,62.29
2022-10-17T12:02:01.853Z,61.20
2022-10-17T12:04:49.669Z,61.22
2022-10-17T12:07:22.484Z,61.43
2022-10-17T12:10:00.750Z,62.15
2022-10-17T12:12:32.176Z,61.94
2022-10-17T12:15:26.293Z,61.95
2022-10-17T12:17:55.528Z,61.29
2022-10-17T12:20:28.880Z,59.79
2022-10-17T12:23:11.968Z,59.37
2022-10-17T12:26:04.729Z,59.89
2022-10-17T12:28:48.282Z,60.44
2022-10-17T12:31:15.985Z,60.70
2022-10-17T12:33:46.888Z,60.49
2022-10-17T12:36:27.037Z,60.37
2022-10-17T12:39:03.720Z,59.53
2022-10-17T12:41:40.751Z,59.71
2022-10-17T12:44:14.737Z,59.89
2022-10-17T12:46:52.171Z,60.01
2022-10-17T12:49:38.967Z,60.12
2022-10-17T12:52:36.774Z,60.08
2022-10-17T12:55:14.191Z,59.93
2022-10-17T12:57:49.461Z,59.60
2022-10-17T13:00:43.852Z,59.02
2022-10-17T13:03:24.150Z,58.70
2022-10-17T13:05:55.665Z,57.98
2022-10-17T13:08:28.827Z,57.78
2022-10-17T13:10:57.456Z,57.76
2022-10-17T13:13:37.483Z,57.39
2022-10-17T13:16:05.476Z,57.30
2022-10-17T13:18:36.065Z,57.47
2022-10-17T13:21:06.016Z,57.44
2022-10-17T13:23:38.294Z,57.27
2022-10-17T13:26:26.689Z,56.70
2022-10-17T13:29:15.677Z,56.42
2022-10-17T13:31:44.884Z,55.88
2022-10-17T13:34:24.628Z,56.01
2022-10-17T13:36:58.065Z,56.85
2022-10-17T13:39:52.529Z,56.90
2022-10-17T13:42:38.519Z,56.91
2022-10-17T13:45:18.955Z,56.55
2022-10-17T13:47:47.404Z,56.23
2022-10-17T13:50:44.599Z,55.80
2022-10-17T13:53:17.395Z,56.72
2022-10-17T13:56:26.475Z,57.35
2022-10-17T13:58:51.741Z,57.15
2022-10-17T14:01:21.653Z,57.19
2022-10-17T14:03:57.068Z,56.96
2022-10-17T14:06:31.289Z,56.80
2022-10-17T14:09:02.739Z,56.40
2022-10-17T14:11:41.014Z,56.67
2022-10-17T14:14:22.272Z,56.83
2022-10-17T14:16:50.244Z,57.33
2022-10-17T14:19:30.420Z,57.14
2022-10-17T14:22:21.399Z,57.06
2022-10-17T14:24:50.716Z,57.16
2022-10-17T14:27:36.187Z,57.20
2022-10-17T14:30:51.671Z,57.34
2022-10-17T14:33:30.527Z,57.56
2022-10-17T14:36:00.812Z,57.40
2022-10-17T14:38:30.263Z,57.23
2022-10-17T14:41:30.542Z,57.57
2022-10-17T14:44:16.129Z,57.67
2022-10-17T14:46:50.477Z,57.97
2022-10-17T14:49:52.163Z,58.27
2022-10-17T14:52:19.963Z,58.55
2022-10-17T14:54:49.699Z,58.30
2022-10-17T14:57:40.899Z,58.13
2022-10-17T15:00:14.150Z,58.34
2022-10-17T15:02:42.524Z,58.27
2022-10-17T15:05:13.283Z,58.43
2022-10-17T15:07:42.612Z,58.80
2022-10-17T15:10:32.943Z,58.99
2022-10-17T15:13:27.598Z,59.51
2022-10-17T15:15:52.239Z,59.70
2022-10-17T15:18:20.377Z,60.06
2022-10-17T15:20:52.672Z,60.07
2022-10-17T15:23:28.791Z,60.21
2022-10-17T15:25:56.575Z,60.40
2022-10-17T15:28:24.419Z,60.77
2022-10-17T15:30:52.240Z,61.25
2022-10-17T15:33:20.200Z,61.47
2022-10-17T15:35:48.143Z,61.67
2022-10-17T15:38:18.159Z,62.01
2022-10-17T15:40:49.178Z,62.31
2022-10-17T15:43:19.845Z,62.77
2022-10-17T15:45:48.705Z,63.35
2022-10-17T15:48:24.588Z,63.83
2022-10-17T15:50:52.578Z,64.32
2022-10-17T15:53:20.304Z,64.48
2022-10-17T15:55:51.101Z,64.77
2022-10-17T15:58:19.849Z,65.10
2022-10-17T16:00:48.463Z,65.44
2022-10-17T16:03:16.507Z,65.70
2022-10-17T16:05:44.266Z,65.74
2022-10-17T16:08:12.071Z,66.02
2022-10-17T16:10:40.926Z,65.97
2022-10-17T16:13:21.142Z,66.17
2022-10-17T16:15:49.351Z,66.44
2022-10-17T16:18:17.339Z,66.39
2022-10-17T16:20:45.231Z,66.54
2022-10-17T16:23:14.094Z,66.65
2022-10-17T16:25:42.148Z,66.86
2022-10-17T16:28:11.967Z,67.10
2022-10-17T16:30:43.105Z,67.10
2022-10-17T16:33:11.808Z,67.40
2022-10-17T16:35:39.766Z,68.08
2022-10-17T16:38:08.145Z,68.05
2022-10-17T16:40:38.558Z,68.05
2022-10-17T16:43:06.982Z,68.02
2022-10-17T16:45:36.317Z,68.05
2022-10-17T16:48:04.225Z,68.12
2022-10-17T16:50:35.474Z,68.22
2022-10-17T16:53:04.018Z,68.57
2022-10-17T16:55:31.920Z,68.65
2022-10-17T16:58:00.223Z,68.61
2022-10-17T17:00:28.306Z,68.57
2022-10-17T17:02:56.139Z,68.85
2022-10-17T17:05:24.006Z,69.11
2022-10-17T17:07:51.742Z,69.14
2022-10-17T17:10:19.466Z,69.28
2022-10-17T17:12:47.345Z,69.57
2022-10-17T17:15:15.242Z,69.79
2022-10-17T17:17:50.525Z,69.78
2022-10-17T17:20:23.698Z,69.99
2022-10-17T17:22:52.512Z,70.47
2022-10-17T17:25:22.039Z,71.02
2022-10-17T17:27:49.946Z,70.97
2022-10-17T17:30:18.046Z,70.99
2022-10-17T17:32:45.855Z,70.95
2022-10-17T17:35:13.697Z,71.19
2022-10-17T17:37:41.453Z,71.48
2022-10-17T17:40:10.166Z,71.70
2022-10-17T17:42:38.052Z,71.70
2022-10-17T17:45:06.473Z,71.82
2022-10-17T17:47:34.304Z,71.96
2022-10-17T17:50:03.425Z,72.26
2022-10-17T17:52:31.655Z,72.18
2022-10-17T17:54:59.661Z,72.29
2022-10-17T17:57:29.515Z,72.21
2022-10-17T17:59:57.239Z,72.35
2022-10-17T18:02:25.032Z,72.65
2022-10-17T18:04:52.966Z,72.70
2022-10-17T18:07:20.716Z,72.73
2022-10-17T18:09:49.293Z,72.79
2022-10-17T18:12:17.403Z,73.06
2022-10-17T18:14:45.319Z,73.34
2022-10-17T18:17:13.205Z,73.11
2022-10-17T18:19:41.026Z,73.26
2022-10-17T18:22:09.490Z,73.22
2022-10-17T18:24:37.297Z,73.54
2022-10-17T18:27:05.164Z,73.90
2022-10-17T18:29:33.465Z,73.95
2022-10-17T18:32:01.376Z,73.96
2022-10-17T18:34:29.343Z,74.17
2022-10-17T18:36:57.773Z,74.41
2022-10-17T18:39:25.876Z,74.51
2022-10-17T18:41:53.693Z,74.49
2022-10-17T18:44:22.021Z,74.60
2022-10-17T18:46:50.022Z,74.69
2022-10-17T18:49:20.175Z,74.63
2022-10-17T18:51:48.118Z,74.96
2022-10-17T18:54:20.738Z,75.01
2022-10-17T18:56:53.613Z,75.12
2022-10-17T18:59:22.224Z,75.44
2022-10-17T19:01:50.162Z,75.55
2022-10-17T19:04:18.172Z,75.30
2022-10-17T19:06:46.128Z,75.25
2022-10-17T19:09:14.825Z,75.13
2022-10-17T19:11:43.183Z,75.29
2022-10-17T19:14:13.579Z,75.28
2022-10-17T19:16:46.094Z,75.57
2022-10-17T19:19:15.104Z,75.55
2022-10-17T19:21:44.200Z,75.63
2022-10-17T19:24:16.716Z,75.82
2022-10-17T19:26:47.381Z,75.74
2022-10-17T19:29:17.058Z,76.01
2022-10-17T19:31:45.652Z,75.67
2022-10-17T19:34:14.595Z,75.44
2022-10-17T19:36:42.954Z,75.28
2022-10-17T19:39:14.025Z,75.10
2022-10-17T19:41:44.677Z,75.21
2022-10-17T19:44:13.708Z,74.82
2022-10-17T19:46:41.609Z,74.55
2022-10-17T19:49:11.237Z,74.51
2022-10-17T19:51:39.757Z,74.53
2022-10-17T19:54:07.532Z,74.59
2022-10-17T19:56:38.926Z,75.10
2022-10-17T19:59:08.450Z,75.31
2022-10-17T20:01:40.425Z,75.20
2022-10-17T20:04:10.786Z,75.13
2022-10-17T20:06:39.910Z,75.36
2022-10-17T20:09:11.033Z,75.30
2022-10-17T20:11:41.902Z,74.97
2022-10-17T20:14:09.892Z,75.09
2022-10-17T20:16:37.779Z,75.42
2022-10-17T20:19:09.175Z,75.49
2022-10-17T20:21:39.647Z,75.64
2022-10-17T20:24:11.176Z,76.09
2022-10-17T20:26:40.053Z,76.42
2022-10-17T20:29:13.490Z,76.64
2022-10-17T20:31:43.627Z,76.87
2022-10-17T20:34:14.212Z,77.11
2022-10-17T20:36:42.705Z,77.45
2022-10-17T20:39:13.049Z,77.62
2022-10-17T20:41:41.752Z,77.63
2022-10-17T20:44:10.587Z,77.64
2022-10-17T20:46:45.332Z,77.55
2022-10-17T20:49:20.864Z,77.59
2022-10-17T20:51:48.660Z,77.56
2022-10-17T20:54:16.417Z,77.20
2022-10-17T20:56:44.188Z,77.24
2022-10-17T20:59:16.180Z,77.37
2022-10-17T21:01:45.442Z,77.42
2022-10-17T21:04:44.204Z,77.27
2022-10-17T21:07:01.792Z,77.31
2022-10-17T21:09:29.728Z,77.25
2022-10-17T21:11:57.611Z,77.20
2022-10-17T21:14:25.680Z,77.23
2022-10-17T21:16:53.664Z,77.62
2022-10-17T21:19:21.929Z,77.96
2022-10-17T21:21:50.546Z,77.91
2022-10-17T21:24:20.679Z,77.83
2022-10-17T21:26:55.424Z,78.08
2022-10-17T21:29:23.944Z,78.22
2022-10-17T21:31:52.842Z,78.27
2022-10-17T21:34:23.965Z,78.24
2022-10-17T21:36:52.290Z,78.18
2022-10-17T21:39:21.936Z,78.37
2022-10-17T21:41:49.877Z,78.45
2022-10-17T21:44:20.587Z,78.47
2022-10-17T21:46:48.949Z,78.72
2022-10-17T21:49:19.468Z,78.74
2022-10-17T21:51:48.563Z,78.60
2022-10-17T21:54:18.426Z,79.05
2022-10-17T21:56:46.737Z,79.20
2022-10-17T21:59:14.808Z,79.54
2022-10-17T22:01:45.031Z,79.69
2022-10-17T22:04:17.791Z,79.69
2022-10-17T22:06:47.810Z,79.66
2022-10-17T22:09:19.613Z,79.70
2022-10-17T22:11:50.150Z,79.95
2022-10-17T22:14:20.057Z,80.39
2022-10-17T22:16:49.088Z,80.52
2022-10-17T22:19:20.348Z,80.32
2022-10-17T22:21:48.829Z,80.21
2022-10-17T22:24:19.012Z,80.31
2022-10-17T22:26:47.367Z,80.18
2022-10-17T22:29:15.204Z,80.31
2022-10-17T22:31:43.360Z,80.58
2022-10-17T22:34:13.824Z,80.68
2022-10-17T22:36:42.195Z,80.67
2022-10-17T22:39:11.088Z,80.62
2022-10-17T22:41:38.880Z,80.91
2022-10-17T22:44:06.844Z,81.01
2022-10-17T22:46:34.900Z,81.11
2022-10-17T22:49:03.295Z,80.98
2022-10-17T22:51:32.270Z,80.96
2022-10-17T22:54:00.022Z,81.04
2022-10-17T22:56:27.893Z,81.17
2022-10-17T22:58:55.658Z,81.39
2022-10-17T23:01:25.491Z,81.35
2022-10-17T23:03:53.474Z,81.20
2022-10-17T23:06:21.676Z,81.26
2022-10-17T23:08:49.890Z,81.32
2022-10-17T23:11:17.896Z,81.31
2022-10-17T23:13:45.656Z,81.15
2022-10-17T23:16:13.836Z,81.17
2022-10-17T23:18:41.850Z,81.33
2022-10-17T23:21:10.039Z,81.15
2022-10-17T23:23:38.771Z,81.33
2022-10-17T23:26:09.632Z,81.30
2022-10-17T23:28:38.026Z,81.27
2022-10-17T23:31:24.065Z,81.10
2022-10-17T23:33:51.838Z,81.00
2022-10-17T23:36:20.598Z,81.30
2022-10-17T23:38:49.118Z,81.72
2022-10-17T23:41:17.379Z,81.68
2022-10-17T23:43:45.373Z,81.61
2022-10-17T23:46:13.720Z,81.70
2022-10-17T23:48:41.834Z,82.01
2022-10-17T23:51:10.772Z,82.27
2022-10-17T23:53:39.409Z,82.54
2022-10-17T23:56:08.251Z,82.49
2022-10-17T23:58:36.758Z,82.43
